createdAt,value
2022-12-01T00:01:20.083Z,96265.44
2022-12-01T00:03:48.281Z,96174.31
2022-12-01T00:06:21.037Z,96300.16
2022-12-01T00:09:13.989Z,96111.63
2022-12-01T00:11:43.124Z,96226.50
2022-12-01T00:14:10.861Z,96277.78
2022-12-01T00:16:40.519Z,96200.31
2022-12-01T00:19:08.735Z,96287.22
2022-12-01T00:21:36.553Z,96264.09
2022-12-01T00:24:06.267Z,96138.25
2022-12-01T00:26:34.015Z,96212.38
2022-12-01T00:29:01.740Z,96283.31
2022-12-01T00:31:29.626Z,96238.97
2022-12-01T00:33:57.431Z,96206.13
2022-12-01T00:36:25.574Z,96278.38
2022-12-01T00:38:54.532Z,96289.78
2022-12-01T00:41:24.880Z,96264.63
2022-12-01T00:43:53.220Z,96286.56
2022-12-01T00:46:22.368Z,96284.59
2022-12-01T00:48:50.151Z,96286.03
2022-12-01T00:51:17.981Z,96267.00
2022-12-01T00:53:45.943Z,96249.09
2022-12-01T00:56:13.990Z,96276.84
2022-12-01T00:58:43.182Z,96276.28
2022-12-01T01:01:14.281Z,96193.63
2022-12-01T01:03:42.144Z,96214.13
2022-12-01T01:06:12.265Z,96298.09
2022-12-01T01:08:40.775Z,96246.69
2022-12-01T01:11:09.828Z,96304.44
2022-12-01T01:13:38.482Z,96304.31
2022-12-01T01:16:11.185Z,96237.16
2022-12-01T01:18:39.122Z,96256.41
2022-12-01T01:21:09.511Z,96280.28
2022-12-01T01:23:38.796Z,96287.06
2022-12-01T01:26:08.442Z,96164.75
2022-12-01T01:28:37.029Z,96294.44
2022-12-01T01:31:08.224Z,96292.09
2022-12-01T01:33:36.401Z,96223.06
2022-12-01T01:36:05.193Z,96103.69
2022-12-01T01:38:33.381Z,96292.97
2022-12-01T01:41:01.901Z,96296.97
2022-12-01T01:43:47.044Z,96297.06
2022-12-01T01:46:18.170Z,96293.66
2022-12-01T01:49:12.657Z,96300.97
2022-12-01T01:51:44.625Z,96303.88
2022-12-01T01:54:15.979Z,96295.50
2022-12-01T01:56:45.601Z,96252.81
2022-12-01T01:59:16.273Z,96287.25
2022-12-01T02:01:46.007Z,96289.28
2022-12-01T02:04:16.928Z,96286.97
2022-12-01T02:06:44.669Z,96249.25
2022-12-01T02:09:13.314Z,96186.41
2022-12-01T02:12:11.443Z,96273.38
2022-12-01T02:15:05.287Z,96282.09
2022-12-01T02:17:43.319Z,96268.09
2022-12-01T02:21:00.449Z,96252.84
2022-12-01T02:24:09.739Z,96265.13
2022-12-01T02:26:47.621Z,96273.50
2022-12-01T02:29:48.459Z,96268.47
2022-12-01T02:32:22.693Z,96223.56
2022-12-01T02:34:58.223Z,96186.00
2022-12-01T02:37:32.245Z,96276.16
2022-12-01T02:40:07.021Z,96267.16
2022-12-01T02:42:50.617Z,96262.25
2022-12-01T02:45:24.685Z,96246.41
2022-12-01T02:47:57.276Z,96239.72
2022-12-01T02:50:27.995Z,96266.91
2022-12-01T02:52:56.446Z,96255.53
2022-12-01T02:55:24.269Z,96257.28
2022-12-01T02:57:52.000Z,96253.94
2022-12-01T03:00:20.305Z,96243.47
2022-12-01T03:03:08.640Z,96167.34
2022-12-01T03:05:46.907Z,96244.63
2022-12-01T03:08:35.345Z,96197.47
2022-12-01T03:11:04.606Z,96245.34
2022-12-01T03:13:39.284Z,96114.28
2022-12-01T03:16:13.480Z,96232.34
2022-12-01T03:18:44.528Z,96228.94
2022-12-01T03:21:20.950Z,96260.75
2022-12-01T03:23:51.608Z,96143.25
2022-12-01T03:26:23.315Z,96254.03
2022-12-01T03:29:04.349Z,96253.03
2022-12-01T03:31:37.643Z,96258.94
2022-12-01T03:34:11.947Z,96255.84
2022-12-01T03:36:45.397Z,96141.06
2022-12-01T03:39:18.176Z,96202.44
2022-12-01T03:41:54.391Z,96249.50
2022-12-01T03:44:26.480Z,96110.75
2022-12-01T03:46:58.202Z,96255.03
2022-12-01T03:49:26.938Z,96145.94
2022-12-01T03:52:03.606Z,96251.41
2022-12-01T03:54:45.280Z,96242.38
2022-12-01T03:57:16.736Z,96272.25
2022-12-01T03:59:46.964Z,96271.25
2022-12-01T04:02:15.221Z,96263.81
2022-12-01T04:04:43.069Z,96264.59
2022-12-01T04:07:13.480Z,96188.97
2022-12-01T04:09:42.135Z,96274.44
2022-12-01T04:12:33.107Z,96245.00
2022-12-01T04:15:02.749Z,96255.97
2022-12-01T04:17:31.219Z,96255.13
2022-12-01T04:19:59.149Z,96257.88
2022-12-01T04:22:28.649Z,96141.94
2022-12-01T04:24:56.489Z,96245.19
2022-12-01T04:27:24.271Z,96196.34
2022-12-01T04:29:52.170Z,96184.03
2022-12-01T04:32:20.228Z,96261.28
2022-12-01T04:34:49.036Z,96268.50
2022-12-01T04:37:17.030Z,96177.41
2022-12-01T04:39:46.291Z,96138.00
2022-12-01T04:42:14.136Z,96249.22
2022-12-01T04:44:41.901Z,96253.59
2022-12-01T04:47:09.699Z,96131.59
2022-12-01T04:49:37.603Z,96225.63
2022-12-01T04:52:05.830Z,96239.94
2022-12-01T04:54:33.585Z,96253.75
2022-12-01T04:57:02.816Z,96243.00
2022-12-01T04:59:30.591Z,96165.84
2022-12-01T05:01:58.557Z,96198.06
2022-12-01T05:04:26.645Z,96194.81
2022-12-01T05:06:55.508Z,96251.81
2022-12-01T05:09:23.333Z,96272.97
2022-12-01T05:11:51.087Z,96236.88
2022-12-01T05:14:20.187Z,96167.34
2022-12-01T05:16:51.020Z,96265.69
2022-12-01T05:19:36.258Z,96229.84
2022-12-01T05:22:04.066Z,96263.38
2022-12-01T05:24:31.851Z,96250.78
2022-12-01T05:27:00.660Z,96179.16
2022-12-01T05:29:29.749Z,96251.34
2022-12-01T05:31:58.656Z,96236.69
2022-12-01T05:34:26.780Z,96141.69
2022-12-01T05:36:54.595Z,96265.03
2022-12-01T05:39:22.306Z,96264.59
2022-12-01T05:41:50.004Z,96272.09
2022-12-01T05:44:17.884Z,96254.41
2022-12-01T05:46:47.057Z,96265.47
2022-12-01T05:49:15.124Z,96236.25
2022-12-01T05:51:44.188Z,96248.63
2022-12-01T05:54:11.873Z,96258.88
2022-12-01T05:56:39.741Z,96264.72
2022-12-01T05:59:09.484Z,96275.66
2022-12-01T06:01:37.209Z,96277.53
2022-12-01T06:04:06.619Z,96282.09
2022-12-01T06:06:34.377Z,96276.19
2022-12-01T06:09:02.466Z,96249.56
2022-12-01T06:11:30.305Z,96276.53
2022-12-01T06:13:58.172Z,96276.38
2022-12-01T06:16:25.951Z,96240.06
2022-12-01T06:18:57.825Z,96283.19
2022-12-01T06:21:26.891Z,96277.53
2022-12-01T06:23:54.632Z,96278.94
2022-12-01T06:26:22.500Z,96283.31
2022-12-01T06:28:50.248Z,96275.31
2022-12-01T06:31:18.048Z,96279.78
2022-12-01T06:33:45.761Z,96269.09
2022-12-01T06:36:13.730Z,96293.16
2022-12-01T06:38:42.769Z,96296.41
2022-12-01T06:41:10.464Z,96266.31
2022-12-01T06:43:38.695Z,96212.47
2022-12-01T06:46:06.653Z,96273.41
2022-12-01T06:48:34.492Z,96291.38
2022-12-01T06:51:02.626Z,96264.16
2022-12-01T06:53:31.148Z,96298.16
2022-12-01T06:56:02.395Z,96303.94
2022-12-01T06:58:30.320Z,96291.81
2022-12-01T07:00:58.843Z,96287.00
2022-12-01T07:03:27.004Z,96273.94
2022-12-01T07:05:59.190Z,96307.50
2022-12-01T07:08:27.316Z,96284.00
2022-12-01T07:10:59.498Z,96270.25
2022-12-01T07:13:33.442Z,96294.59
2022-12-01T07:16:03.004Z,96302.84
2022-12-01T07:18:31.638Z,96298.47
2022-12-01T07:21:01.265Z,96298.00
2022-12-01T07:23:29.436Z,96303.78
2022-12-01T07:26:01.347Z,96285.59
2022-12-01T07:28:30.865Z,96293.75
2022-12-01T07:31:03.315Z,96324.19
2022-12-01T07:33:31.269Z,96259.53
2022-12-01T07:35:59.460Z,96305.75
2022-12-01T07:38:28.881Z,96291.28
2022-12-01T07:40:56.620Z,96315.16
2022-12-01T07:43:24.382Z,96317.25
2022-12-01T07:45:53.523Z,96317.72
2022-12-01T07:48:21.673Z,96322.88
2022-12-01T07:50:49.342Z,96268.28
2022-12-01T07:53:17.002Z,96311.88
2022-12-01T07:55:49.406Z,96320.94
2022-12-01T07:58:17.189Z,96306.97
2022-12-01T08:00:44.915Z,96322.53
2022-12-01T08:03:14.170Z,96316.44
2022-12-01T08:05:41.989Z,96329.56
2022-12-01T08:08:09.795Z,96319.13
2022-12-01T08:10:37.893Z,96306.84
2022-12-01T08:13:05.734Z,96327.66
2022-12-01T08:15:33.498Z,96322.16
2022-12-01T08:18:03.609Z,96333.88
2022-12-01T08:20:32.666Z,96338.25
2022-12-01T08:23:01.675Z,96333.03
2022-12-01T08:25:29.600Z,96327.81
2022-12-01T08:27:57.817Z,96323.09
2022-12-01T08:30:25.517Z,96328.53
2022-12-01T08:32:55.028Z,96334.63
2022-12-01T08:35:22.799Z,96335.31
2022-12-01T08:37:54.396Z,96322.94
2022-12-01T08:40:23.218Z,96309.34
2022-12-01T08:42:53.013Z,96296.84
2022-12-01T08:45:22.865Z,96327.13
2022-12-01T08:47:50.683Z,96309.63
2022-12-01T08:50:18.550Z,96317.81
2022-12-01T08:52:46.301Z,96320.50
2022-12-01T08:55:15.342Z,96330.53
2022-12-01T08:57:43.011Z,96326.03
2022-12-01T09:00:12.304Z,96325.75
2022-12-01T09:02:40.123Z,96312.28
2022-12-01T09:05:08.652Z,96310.28
2022-12-01T09:07:36.441Z,96332.53
2022-12-01T09:10:04.378Z,96335.66
2022-12-01T09:12:33.502Z,96333.19
2022-12-01T09:15:01.351Z,96336.47
2022-12-01T09:17:29.495Z,96333.84
2022-12-01T09:19:57.187Z,96337.31
2022-12-01T09:22:24.915Z,96341.78
2022-12-01T09:24:52.732Z,96335.88
2022-12-01T09:27:20.461Z,96342.19
2022-12-01T09:29:49.746Z,96348.66
2022-12-01T09:32:17.686Z,96282.59
2022-12-01T09:34:45.589Z,96308.56
2022-12-01T09:37:13.294Z,96339.06
2022-12-01T09:39:40.996Z,96320.69
2022-12-01T09:42:13.777Z,96337.41
2022-12-01T09:44:46.712Z,96341.94
2022-12-01T09:47:22.969Z,96266.97
2022-12-01T09:49:56.871Z,96332.44
2022-12-01T09:52:27.860Z,96334.25
2022-12-01T09:54:56.919Z,96337.75
2022-12-01T09:57:31.844Z,96274.91
2022-12-01T10:00:02.494Z,96333.56
2022-12-01T10:02:44.625Z,96322.53
2022-12-01T10:05:16.599Z,96318.78
2022-12-01T10:07:48.415Z,96317.47
2022-12-01T10:10:21.690Z,96255.22
2022-12-01T10:12:49.478Z,96308.19
2022-12-01T10:15:28.418Z,96311.28
2022-12-01T10:18:17.781Z,96283.50
2022-12-01T10:20:49.937Z,96308.34
2022-12-01T10:23:37.034Z,96306.13
2022-12-01T10:26:14.624Z,96306.88
2022-12-01T10:28:54.030Z,96287.81
2022-12-01T10:31:27.380Z,96295.72
2022-12-01T10:34:08.985Z,96296.28
2022-12-01T10:36:36.685Z,96294.84
2022-12-01T10:39:07.693Z,96283.59
2022-12-01T10:41:38.593Z,96264.81
2022-12-01T10:44:08.119Z,96294.56
2022-12-01T10:46:42.311Z,96289.56
2022-12-01T10:49:13.469Z,96274.34
2022-12-01T10:51:50.949Z,96288.88
2022-12-01T10:54:19.251Z,96292.03
2022-12-01T10:56:49.668Z,96278.34
2022-12-01T10:59:26.780Z,96250.75
2022-12-01T11:01:55.345Z,96273.69
2022-12-01T11:04:36.364Z,96269.59
2022-12-01T11:07:05.387Z,96269.59
2022-12-01T11:09:33.688Z,96245.78
2022-12-01T11:12:03.726Z,96234.19
2022-12-01T11:14:42.053Z,96265.66
2022-12-01T11:17:28.921Z,96272.00
2022-12-01T11:19:58.482Z,96270.97
2022-12-01T11:22:30.781Z,96251.91
2022-12-01T11:25:01.584Z,96265.41
2022-12-01T11:27:32.940Z,96265.56
2022-12-01T11:30:04.884Z,96254.88
2022-12-01T11:32:35.204Z,96245.22
2022-12-01T11:35:08.540Z,96240.31
2022-12-01T11:37:50.420Z,96255.44
2022-12-01T11:40:30.956Z,96253.63
2022-12-01T11:43:01.116Z,96253.75
2022-12-01T11:45:32.282Z,96203.91
2022-12-01T11:48:04.154Z,96246.13
2022-12-01T11:50:35.446Z,96192.91
2022-12-01T11:53:04.048Z,96256.13
2022-12-01T11:55:32.650Z,96256.13
2022-12-01T11:58:02.878Z,96253.53
2022-12-01T12:00:39.447Z,96250.13
2022-12-01T12:03:19.733Z,96230.94
2022-12-01T12:09:20.918Z,96223.69
2022-12-01T12:11:58.495Z,96213.00
2022-12-01T12:14:46.369Z,96197.13
2022-12-01T12:17:27.608Z,96237.38
2022-12-01T12:20:12.936Z,96247.97
2022-12-01T12:22:55.475Z,96242.50
2022-12-01T12:25:35.964Z,96245.00
2022-12-01T12:28:25.025Z,96249.19
2022-12-01T12:31:04.204Z,96240.13
2022-12-01T12:34:00.467Z,96227.19
2022-12-01T12:36:41.872Z,96228.31
2022-12-01T12:39:31.140Z,96187.75
2022-12-01T12:41:59.640Z,96223.56
2022-12-01T12:44:44.657Z,96176.50
2022-12-01T12:47:29.136Z,96182.06
2022-12-01T12:50:10.732Z,96179.78
2022-12-01T12:52:42.649Z,96232.63
2022-12-01T12:55:19.609Z,96220.63
2022-12-01T12:57:53.217Z,96210.44
2022-12-01T13:00:23.979Z,96230.84
2022-12-01T13:02:55.637Z,96218.81
2022-12-01T13:05:28.302Z,96186.00
2022-12-01T13:08:00.652Z,96240.56
2022-12-01T13:10:38.133Z,96238.97
2022-12-01T13:13:18.351Z,96238.31
2022-12-01T13:15:48.370Z,96170.91
2022-12-01T13:18:26.440Z,96241.22
2022-12-01T13:20:58.192Z,96181.38
2022-12-01T13:23:27.098Z,96220.47
2022-12-01T13:26:00.101Z,96177.03
2022-12-01T13:28:30.835Z,96235.25
2022-12-01T13:31:01.311Z,96203.25
2022-12-01T13:33:29.721Z,96235.47
2022-12-01T13:36:29.907Z,96233.31
2022-12-01T13:38:57.916Z,96190.09
2022-12-01T13:41:30.372Z,96210.63
2022-12-01T13:44:01.381Z,96237.03
2022-12-01T13:46:32.580Z,96227.72
2022-12-01T13:49:01.995Z,96237.16
2022-12-01T13:52:08.696Z,96236.38
2022-12-01T13:54:37.641Z,96213.41
2022-12-01T13:57:13.348Z,96227.06
2022-12-01T14:00:05.642Z,96214.22
2022-12-01T14:02:42.136Z,96222.16
2022-12-01T14:05:44.756Z,96228.50
2022-12-01T14:08:22.622Z,96223.19
2022-12-01T14:10:57.581Z,96235.31
2022-12-01T14:13:28.086Z,96231.00
2022-12-01T14:15:58.734Z,96225.34
2022-12-01T14:18:35.369Z,96226.91
2022-12-01T14:21:06.084Z,96224.88
2022-12-01T14:23:36.293Z,96213.97
2022-12-01T14:26:16.740Z,96213.53
2022-12-01T14:29:21.122Z,96223.06
2022-12-01T14:32:23.846Z,96231.75
2022-12-01T14:35:02.298Z,96230.38
2022-12-01T14:37:54.301Z,96227.16
2022-12-01T14:40:31.119Z,96227.56
2022-12-01T14:43:17.369Z,96242.34
2022-12-01T14:45:57.087Z,96225.28
2022-12-01T14:48:33.295Z,96243.56
2022-12-01T14:51:17.421Z,96232.78
2022-12-01T14:53:47.360Z,96226.16
2022-12-01T14:56:19.932Z,96240.69
2022-12-01T14:58:56.263Z,96240.03
2022-12-01T15:01:25.161Z,96242.06
2022-12-01T15:03:58.771Z,96196.19
2022-12-01T15:06:29.400Z,96192.31
2022-12-01T15:12:02.144Z,96237.53
2022-12-01T15:14:35.586Z,96235.03
2022-12-01T15:17:05.449Z,96230.81
2022-12-01T15:19:37.812Z,96246.72
2022-12-01T15:22:13.484Z,96244.19
2022-12-01T15:24:41.972Z,96235.94
2022-12-01T15:27:25.966Z,96235.47
2022-12-01T15:29:54.168Z,96233.69
2022-12-01T15:32:24.649Z,96237.88
2022-12-01T15:34:56.839Z,96234.25
2022-12-01T15:37:31.595Z,96230.16
2022-12-01T15:40:43.443Z,96235.28
2022-12-01T15:43:02.656Z,96219.50
2022-12-01T15:45:30.404Z,96240.34
2022-12-01T15:47:59.531Z,96240.34
2022-12-01T15:50:31.294Z,96245.91
2022-12-01T15:53:00.470Z,96245.69
2022-12-01T15:55:31.079Z,96240.47
2022-12-01T15:58:00.191Z,96240.69
2022-12-01T16:00:28.030Z,96224.59
2022-12-01T16:02:58.136Z,96240.03
2022-12-01T16:05:28.362Z,96242.94
2022-12-01T16:08:13.953Z,96165.50
2022-12-01T16:10:42.044Z,96160.31
2022-12-01T16:13:44.354Z,96238.75
2022-12-01T16:16:28.530Z,96240.34
2022-12-01T16:18:57.967Z,96237.03
2022-12-01T16:21:26.928Z,96240.13
2022-12-01T16:24:04.221Z,96239.00
2022-12-01T16:26:34.116Z,96225.22
2022-12-01T16:29:01.841Z,96220.78
2022-12-01T16:31:29.700Z,96246.91
2022-12-01T16:34:09.823Z,96239.06
2022-12-01T16:36:47.025Z,96238.47
2022-12-01T16:39:16.371Z,96206.81
2022-12-01T16:41:46.649Z,96242.09
2022-12-01T16:44:28.652Z,96219.84
2022-12-01T16:46:56.861Z,96187.50
2022-12-01T16:49:24.810Z,96200.66
2022-12-01T16:51:57.188Z,96224.31
2022-12-01T16:54:28.319Z,96221.50
2022-12-01T16:56:56.173Z,96180.28
2022-12-01T16:59:24.069Z,96228.06
2022-12-01T17:01:51.986Z,96157.94
2022-12-01T17:04:20.021Z,96123.19
2022-12-01T17:06:48.009Z,96160.31
2022-12-01T17:09:16.087Z,96236.59
2022-12-01T17:11:45.596Z,96163.56
2022-12-01T17:14:13.747Z,96164.91
2022-12-01T17:16:41.634Z,96221.91
2022-12-01T17:19:09.690Z,96150.06
2022-12-01T17:21:37.533Z,96151.81
2022-12-01T17:24:06.839Z,96247.31
2022-12-01T17:26:34.902Z,96221.44
2022-12-01T17:29:04.507Z,96217.03
2022-12-01T17:31:32.302Z,96230.91
2022-12-01T17:34:00.096Z,96156.03
2022-12-01T17:36:27.815Z,96234.19
2022-12-01T17:38:56.010Z,96235.78
2022-12-01T17:41:25.443Z,96236.69
2022-12-01T17:43:53.258Z,96192.94
2022-12-01T17:46:23.386Z,96189.78
2022-12-01T17:48:51.480Z,96231.78
2022-12-01T17:51:19.465Z,96194.13
2022-12-01T17:53:47.431Z,96137.94
2022-12-01T17:56:17.379Z,96159.47
2022-12-01T17:58:45.519Z,96187.94
2022-12-01T18:01:17.819Z,96236.78
2022-12-01T18:03:47.599Z,96196.94
2022-12-01T18:06:16.997Z,96243.38
2022-12-01T18:08:44.939Z,96230.34
2022-12-01T18:11:18.900Z,96256.63
2022-12-01T18:13:48.689Z,96228.66
2022-12-01T18:16:19.482Z,96238.63
2022-12-01T18:18:49.086Z,96252.78
2022-12-01T18:21:19.042Z,96176.38
2022-12-01T18:23:50.774Z,96243.69
2022-12-01T18:26:19.501Z,96163.31
2022-12-01T18:28:47.294Z,96200.75
2022-12-01T18:31:17.144Z,96238.66
2022-12-01T18:33:46.267Z,96256.16
2022-12-01T18:36:17.516Z,96207.72
2022-12-01T18:38:46.795Z,96247.81
2022-12-01T18:41:15.745Z,96223.47
2022-12-01T18:43:43.925Z,96170.28
2022-12-01T18:46:13.332Z,96205.25
2022-12-01T18:48:45.717Z,96236.13
2022-12-01T18:52:19.162Z,96251.00
2022-12-01T18:54:48.505Z,96220.00
2022-12-01T18:57:28.034Z,96250.53
2022-12-01T18:59:55.867Z,96252.03
2022-12-01T19:02:23.706Z,96253.84
2022-12-01T19:04:51.900Z,96251.69
2022-12-01T19:07:22.906Z,96192.63
2022-12-01T19:09:54.285Z,96229.06
2022-12-01T19:12:22.122Z,96230.34
2022-12-01T19:14:52.995Z,96120.19
2022-12-01T19:17:21.244Z,96241.69
2022-12-01T19:19:49.033Z,96227.94
2022-12-01T19:22:18.907Z,96178.09
2022-12-01T19:24:52.615Z,96238.63
2022-12-01T19:27:23.126Z,96222.63
2022-12-01T19:29:52.183Z,96244.88
2022-12-01T19:32:20.553Z,96242.81
2022-12-01T19:34:48.791Z,96137.28
2022-12-01T19:37:16.848Z,96244.97
2022-12-01T19:39:44.759Z,96239.41
2022-12-01T19:42:12.646Z,96219.09
2022-12-01T19:44:41.810Z,96207.91
2022-12-01T19:47:10.119Z,96231.94
2022-12-01T19:49:37.957Z,96246.47
2022-12-01T19:52:06.551Z,96247.09
2022-12-01T19:54:35.376Z,96260.88
2022-12-01T19:57:03.101Z,96251.69
2022-12-01T19:59:30.918Z,96238.47
2022-12-01T20:02:00.114Z,96252.25
2022-12-01T20:04:27.856Z,96191.94
2022-12-01T20:06:55.629Z,96241.72
2022-12-01T20:09:23.659Z,96252.94
2022-12-01T20:11:51.613Z,96209.91
2022-12-01T20:14:19.479Z,96210.63
2022-12-01T20:16:47.296Z,96199.34
2022-12-01T20:19:16.461Z,96247.28
2022-12-01T20:21:44.264Z,96248.31
2022-12-01T20:24:14.465Z,96201.25
2022-12-01T20:26:44.316Z,96236.59
2022-12-01T20:29:15.529Z,96239.56
2022-12-01T20:31:44.297Z,96169.03
2022-12-01T20:34:14.701Z,96241.16
2022-12-01T20:36:44.870Z,96241.25
2022-12-01T20:39:13.540Z,96249.44
2022-12-01T20:41:41.678Z,96158.72
2022-12-01T20:44:12.528Z,96247.13
2022-12-01T20:46:41.860Z,96188.31
2022-12-01T20:49:10.469Z,96251.13
2022-12-01T20:51:38.209Z,96263.38
2022-12-01T20:56:58.558Z,96200.97
2022-12-01T20:59:26.359Z,96179.72
2022-12-01T21:01:54.295Z,96243.19
2022-12-01T21:04:22.254Z,96188.22
2022-12-01T21:06:56.814Z,96250.00
2022-12-01T21:09:26.356Z,96192.22
2022-12-01T21:12:40.538Z,96243.56
2022-12-01T21:15:18.699Z,96239.59
2022-12-01T21:17:52.571Z,96238.91
2022-12-01T21:20:27.059Z,96223.00
2022-12-01T21:23:03.312Z,96236.63
2022-12-01T21:25:33.099Z,96230.47
2022-12-01T21:28:11.621Z,96160.13
2022-12-01T21:30:47.434Z,96236.97
2022-12-01T21:33:27.153Z,96221.16
2022-12-01T21:36:27.043Z,96232.09
2022-12-01T21:38:58.334Z,96244.69
2022-12-01T21:41:29.623Z,96173.63
2022-12-01T21:44:03.613Z,96236.13
2022-12-01T21:46:31.949Z,96235.00
2022-12-01T21:49:01.853Z,96162.69
2022-12-01T21:51:30.797Z,96146.94
2022-12-01T21:53:59.282Z,96190.59
2022-12-01T21:56:31.596Z,96223.34
2022-12-01T21:59:05.533Z,96220.59
2022-12-01T22:01:35.306Z,96209.97
2022-12-01T22:04:30.342Z,96238.91
2022-12-01T22:06:58.999Z,96238.09
2022-12-01T22:09:30.453Z,96231.06
2022-12-01T22:12:02.576Z,96172.59
2022-12-01T22:14:33.955Z,96193.34
2022-12-01T22:17:17.617Z,96186.56
2022-12-01T22:19:56.551Z,96217.53
2022-12-01T22:22:26.298Z,96214.16
2022-12-01T22:24:57.391Z,96211.28
2022-12-01T22:27:36.028Z,96211.84
2022-12-01T22:30:16.048Z,96176.22
2022-12-01T22:32:57.341Z,96217.53
2022-12-01T22:35:32.396Z,96209.22
2022-12-01T22:38:27.479Z,96215.09
2022-12-01T22:41:56.862Z,96222.91
2022-12-01T22:44:27.621Z,96208.41
2022-12-01T22:47:00.024Z,96168.94
2022-12-01T22:49:27.959Z,96210.47
2022-12-01T22:52:01.232Z,96107.84
2022-12-01T22:54:33.377Z,96075.47
2022-12-01T22:57:12.838Z,96145.53
2022-12-01T22:59:43.858Z,96165.16
2022-12-01T23:02:21.305Z,96193.44
2022-12-01T23:04:51.026Z,96137.84
2022-12-01T23:07:32.647Z,96184.47
2022-12-01T23:10:13.375Z,96154.75
2022-12-01T23:12:41.660Z,96189.59
2022-12-01T23:15:36.231Z,96190.16
2022-12-01T23:18:12.698Z,96171.34
2022-12-01T23:20:41.946Z,96184.13
2022-12-01T23:23:14.438Z,96184.84
2022-12-01T23:25:43.469Z,96183.00
2022-12-01T23:28:12.892Z,96183.34
2022-12-01T23:30:43.707Z,96090.78
2022-12-01T23:33:17.077Z,96174.06
2022-12-01T23:35:48.016Z,96178.97
2022-12-01T23:38:21.990Z,96169.66
2022-12-01T23:40:50.722Z,96169.09
2022-12-01T23:43:21.569Z,96169.78
2022-12-01T23:45:56.573Z,96101.25
2022-12-01T23:48:29.218Z,96080.25
2022-12-01T23:50:57.005Z,96076.41
2022-12-01T23:53:30.425Z,96156.38
2022-12-01T23:56:02.898Z,96147.75
2022-12-01T23:58:30.708Z,96136.19
